createdAt,value
2019-01-31T00:02:13.826Z,0.80
2019-01-31T00:07:59.280Z,0.70
2019-01-31T00:13:28.861Z,0.60
2019-01-31T00:18:44.001Z,0.30
2019-01-31T00:24:17.444Z,0.20
2019-01-31T00:30:23.862Z,0.20
2019-01-31T00:36:05.274Z,0.20
2019-01-31T00:41:45.777Z,0.00
2019-01-31T00:48:01.169Z,-0.10
2019-01-31T00:53:28.756Z,-0.10
2019-01-31T00:58:37.951Z,0.00
2019-01-31T01:04:46.721Z,-0.30
2019-01-31T01:10:12.554Z,-0.40
2019-01-31T01:16:14.963Z,-1.40
2019-01-31T01:21:50.753Z,-0.60
2019-01-31T01:27:20.585Z,-0.60
2019-01-31T01:33:19.773Z,-0.60
2019-01-31T01:39:24.649Z,-0.70
2019-01-31T01:45:05.532Z,-0.70
2019-01-31T01:50:30.169Z,-0.80
2019-01-31T01:56:32.884Z,-0.80
2019-01-31T02:02:34.772Z,-0.90
2019-01-31T02:07:49.607Z,-0.90
2019-01-31T02:14:05.323Z,-0.80
2019-01-31T02:19:48.442Z,-0.90
2019-01-31T02:24:54.696Z,-0.90
2019-01-31T02:30:41.144Z,-0.90
2019-01-31T02:36:17.059Z,-1.00
2019-01-31T02:42:14.949Z,-1.00
2019-01-31T02:47:55.452Z,-1.10
2019-01-31T02:53:26.204Z,-1.20
2019-01-31T02:59:20.555Z,-1.30
2019-01-31T03:05:16.239Z,-1.40
2019-01-31T03:11:14.927Z,-1.40
2019-01-31T03:17:00.204Z,-1.50
2019-01-31T03:23:03.555Z,-1.50
2019-01-31T03:28:48.997Z,-1.50
2019-01-31T03:34:35.985Z,-1.60
2019-01-31T03:40:10.560Z,-1.60
2019-01-31T03:45:27.663Z,-1.70
2019-01-31T03:51:15.089Z,-1.70
2019-01-31T03:56:54.110Z,-1.80
2019-01-31T04:02:29.835Z,-1.70
2019-01-31T04:07:22.722Z,-1.70
2019-01-31T04:12:15.568Z,-1.70
2019-01-31T04:17:08.407Z,-1.60
2019-01-31T04:22:01.245Z,-1.60
2019-01-31T04:26:54.107Z,-1.60
2019-01-31T04:31:47.108Z,-1.40
2019-01-31T04:36:39.960Z,-1.40
2019-01-31T04:41:32.787Z,-1.30
2019-01-31T04:46:25.740Z,-1.20
2019-01-31T04:51:18.628Z,-1.20
2019-01-31T04:56:11.421Z,-1.20
2019-01-31T05:01:04.377Z,-1.20
2019-01-31T05:05:57.212Z,-1.20
2019-01-31T05:10:50.062Z,-1.10
2019-01-31T05:15:42.926Z,-1.10
2019-01-31T05:20:35.765Z,-1.10
2019-01-31T05:25:28.603Z,-1.10
2019-01-31T05:30:21.448Z,-1.00
2019-01-31T05:35:15.405Z,-1.00
2019-01-31T05:40:11.410Z,-1.00
2019-01-31T05:45:08.287Z,-1.00
2019-01-31T05:50:01.120Z,-0.90
2019-01-31T05:54:53.676Z,-1.00
2019-01-31T05:59:46.519Z,-1.00
2019-01-31T06:04:39.412Z,-1.00
2019-01-31T06:09:32.256Z,-1.00
2019-01-31T06:14:25.091Z,-1.00
2019-01-31T06:19:17.921Z,-0.90
2019-01-31T06:24:10.786Z,-0.90
2019-01-31T06:29:03.620Z,-0.80
2019-01-31T06:33:56.470Z,-0.80
2019-01-31T06:38:49.300Z,-0.80
2019-01-31T06:43:42.132Z,-0.70
2019-01-31T06:48:34.968Z,-0.70
2019-01-31T06:53:27.793Z,-0.70
2019-01-31T06:58:20.629Z,-0.60
2019-01-31T07:03:13.451Z,-0.50
2019-01-31T07:08:06.284Z,-0.50
2019-01-31T07:12:59.117Z,-0.40
2019-01-31T07:17:51.972Z,-0.20
2019-01-31T07:22:44.829Z,-0.20
2019-01-31T07:27:37.648Z,-0.20
2019-01-31T07:32:30.499Z,-0.20
2019-01-31T07:37:23.332Z,-0.20
2019-01-31T07:42:16.156Z,-0.20
2019-01-31T07:47:09.000Z,-0.30
2019-01-31T07:52:01.844Z,-0.40
2019-01-31T07:56:54.710Z,-0.40
2019-01-31T08:01:47.558Z,-0.30
2019-01-31T08:06:40.396Z,-0.20
2019-01-31T08:11:33.311Z,-0.10
2019-01-31T08:16:26.435Z,0.10
2019-01-31T08:21:19.342Z,0.20
2019-01-31T08:26:12.175Z,0.20
2019-01-31T08:31:05.545Z,0.30
2019-01-31T08:35:58.398Z,0.40
2019-01-31T08:40:51.248Z,0.50
2019-01-31T08:45:44.072Z,0.40
2019-01-31T08:50:36.902Z,0.50
2019-01-31T08:55:29.751Z,0.80
2019-01-31T09:00:26.263Z,1.00
2019-01-31T09:05:19.393Z,1.20
2019-01-31T09:10:16.406Z,1.60
2019-01-31T09:15:11.764Z,1.80
2019-01-31T09:20:07.850Z,1.70
2019-01-31T09:25:46.545Z,1.80
2019-01-31T09:31:34.733Z,1.40
2019-01-31T09:37:59.626Z,1.60
2019-01-31T09:43:31.729Z,1.20
2019-01-31T09:49:02.745Z,1.50
2019-01-31T09:54:59.107Z,1.30
2019-01-31T10:00:35.862Z,1.30
2019-01-31T10:06:19.784Z,1.30
2019-01-31T10:12:18.628Z,2.10
2019-01-31T10:18:03.693Z,2.50
2019-01-31T10:23:18.564Z,2.40
2019-01-31T10:28:53.486Z,2.60
2019-01-31T10:34:22.283Z,3.00
2019-01-31T10:39:39.551Z,2.10
2019-01-31T10:45:14.767Z,2.00
2019-01-31T10:50:53.986Z,2.30
2019-01-31T10:57:04.175Z,2.30
2019-01-31T11:03:10.759Z,2.40
2019-01-31T11:08:46.488Z,3.00
2019-01-31T11:14:17.918Z,3.10
2019-01-31T11:20:02.793Z,2.40
2019-01-31T11:26:04.641Z,1.90
2019-01-31T11:31:48.410Z,1.90
2019-01-31T11:38:02.450Z,1.90
2019-01-31T11:44:25.982Z,1.90
2019-01-31T11:50:27.056Z,1.90
2019-01-31T11:55:47.809Z,2.60
2019-01-31T12:00:46.019Z,2.90
2019-01-31T12:05:43.295Z,2.90
2019-01-31T12:10:41.554Z,2.70
2019-01-31T12:15:39.084Z,2.90
2019-01-31T12:20:36.013Z,3.00
2019-01-31T12:25:32.676Z,3.20
2019-01-31T12:30:30.536Z,3.40
2019-01-31T12:35:28.348Z,3.20
2019-01-31T12:40:26.677Z,3.20
2019-01-31T12:45:25.283Z,2.70
2019-01-31T12:50:25.930Z,2.30
2019-01-31T12:55:23.353Z,2.00
2019-01-31T13:00:29.966Z,2.20
2019-01-31T13:05:27.060Z,2.30
2019-01-31T13:10:26.306Z,2.30
2019-01-31T13:15:24.529Z,2.40
2019-01-31T13:20:22.551Z,2.50
2019-01-31T13:25:20.988Z,2.50
2019-01-31T13:30:21.025Z,2.40
2019-01-31T13:35:18.853Z,2.40
2019-01-31T13:40:20.509Z,2.60
2019-01-31T13:45:19.250Z,2.60
2019-01-31T13:50:19.632Z,2.50
2019-01-31T13:55:23.818Z,2.50
2019-01-31T14:00:21.980Z,2.80
2019-01-31T14:05:20.100Z,3.10
2019-01-31T14:10:22.756Z,3.10
2019-01-31T14:15:33.046Z,2.80
2019-01-31T14:20:27.303Z,3.00
2019-01-31T14:25:24.960Z,3.20
2019-01-31T14:30:35.513Z,3.30
2019-01-31T14:35:33.273Z,2.90
2019-01-31T14:40:29.887Z,2.70
2019-01-31T14:45:30.099Z,2.30
2019-01-31T14:50:32.562Z,2.10
2019-01-31T14:55:29.011Z,1.90
2019-01-31T15:00:28.218Z,1.70
2019-01-31T15:05:25.903Z,1.70
2019-01-31T15:10:23.739Z,1.60
2019-01-31T15:15:19.563Z,1.50
2019-01-31T15:20:34.429Z,1.50
2019-01-31T15:25:20.858Z,1.10
2019-01-31T15:30:21.169Z,1.10
2019-01-31T15:35:17.696Z,1.00
2019-01-31T15:40:18.646Z,0.80
2019-01-31T15:45:14.782Z,0.70
2019-01-31T15:50:12.752Z,0.70
2019-01-31T15:55:12.408Z,0.50
2019-01-31T16:00:17.319Z,0.50
2019-01-31T16:05:19.104Z,0.30
2019-01-31T16:10:10.130Z,0.30
2019-01-31T16:15:08.241Z,0.20
2019-01-31T16:20:04.473Z,0.10
2019-01-31T16:25:00.378Z,-0.10
2019-01-31T16:29:56.249Z,-0.10
2019-01-31T16:34:52.991Z,-0.10
2019-01-31T16:39:48.090Z,-0.20
2019-01-31T16:44:44.790Z,-0.20
2019-01-31T16:49:44.713Z,-0.20
2019-01-31T16:54:37.754Z,-0.20
2019-01-31T16:59:30.587Z,-0.20
2019-01-31T17:04:23.511Z,-0.30
2019-01-31T17:09:16.364Z,-0.30
2019-01-31T17:14:09.266Z,-0.30
2019-01-31T17:19:02.082Z,-0.30
2019-01-31T17:23:54.939Z,-0.30
2019-01-31T17:28:47.748Z,-0.40
2019-01-31T17:33:40.598Z,-0.40
2019-01-31T17:38:33.434Z,-0.40
2019-01-31T17:43:26.245Z,-0.40
2019-01-31T17:48:19.097Z,-0.40
2019-01-31T17:53:11.908Z,-0.40
2019-01-31T17:58:05.130Z,-0.40
2019-01-31T18:02:57.952Z,-0.40
2019-01-31T18:07:50.979Z,-0.40
2019-01-31T18:12:43.809Z,-0.40
2019-01-31T18:17:36.685Z,-0.40
2019-01-31T18:22:29.504Z,-0.40
2019-01-31T18:27:22.357Z,-0.40
2019-01-31T18:32:15.187Z,-0.40
2019-01-31T18:37:08.048Z,-0.40
2019-01-31T18:42:00.918Z,-0.30
2019-01-31T18:46:53.733Z,-0.40
2019-01-31T18:51:46.680Z,-0.40
2019-01-31T18:56:39.533Z,-0.50
2019-01-31T19:01:32.447Z,-0.50
2019-01-31T19:06:25.312Z,-0.50
2019-01-31T19:11:18.373Z,-0.60
2019-01-31T19:16:11.320Z,-0.70
2019-01-31T19:21:04.384Z,-0.70
2019-01-31T19:25:57.301Z,-0.60
2019-01-31T19:30:50.197Z,-0.70
2019-01-31T19:35:43.239Z,-0.70
2019-01-31T19:40:39.284Z,-0.70
2019-01-31T19:45:38.721Z,-0.80
2019-01-31T19:50:31.563Z,-0.80
2019-01-31T19:55:24.503Z,-0.80
2019-01-31T20:00:19.401Z,-0.90
2019-01-31T20:05:13.063Z,-0.90
2019-01-31T20:10:07.254Z,-0.90
2019-01-31T20:15:00.194Z,-1.00
2019-01-31T20:19:53.038Z,-1.00
2019-01-31T20:24:46.293Z,-1.00
2019-01-31T20:29:39.248Z,-1.00
2019-01-31T20:34:32.114Z,-1.00
2019-01-31T20:39:59.643Z,-1.00
2019-01-31T20:44:52.544Z,-1.10
2019-01-31T20:49:46.081Z,-1.00
2019-01-31T20:54:41.733Z,-1.00
2019-01-31T20:59:34.624Z,-1.00
2019-01-31T21:04:33.021Z,-0.90
2019-01-31T21:09:28.590Z,-0.90
2019-01-31T21:14:20.805Z,-0.90
2019-01-31T21:19:13.739Z,-0.90
2019-01-31T21:24:06.681Z,-0.80
2019-01-31T21:29:02.537Z,-0.80
2019-01-31T21:33:57.369Z,-0.70
2019-01-31T21:38:52.431Z,-0.60
2019-01-31T21:43:48.821Z,-0.60
2019-01-31T21:48:41.671Z,-0.60
2019-01-31T21:53:36.458Z,-0.50
2019-01-31T21:58:29.284Z,-0.60
2019-01-31T22:03:22.143Z,-0.60
2019-01-31T22:08:14.990Z,-0.60
2019-01-31T22:13:07.821Z,-0.60
2019-01-31T22:18:00.848Z,-0.50
2019-01-31T22:22:54.311Z,-0.50
2019-01-31T22:27:48.129Z,-0.40
2019-01-31T22:32:40.961Z,-0.40
2019-01-31T22:37:34.296Z,-0.40
2019-01-31T22:42:27.256Z,-0.40
2019-01-31T22:47:26.208Z,-0.30
2019-01-31T22:52:14.853Z,-0.30
2019-01-31T22:57:07.671Z,-0.30
2019-01-31T23:02:06.732Z,-0.30
2019-01-31T23:06:59.544Z,-0.30
2019-01-31T23:11:52.364Z,-0.20
2019-01-31T23:16:45.216Z,-0.20
2019-01-31T23:21:48.155Z,-0.20
2019-01-31T23:26:40.974Z,-0.20
2019-01-31T23:31:33.856Z,-0.20
2019-01-31T23:36:26.810Z,-0.20
2019-01-31T23:41:19.725Z,-0.20
2019-01-31T23:46:12.644Z,-0.20
2019-01-31T23:51:07.016Z,-0.20
2019-01-31T23:56:00.913Z,-0.10
